sensor_id;sensor_type;location;lat;lon;timestamp;P1;durP1;ratioP1;P2;durP2;ratioP2
21438;SDS011;10880;50.302;18.736;2024-03-29T00:02:13;2.63;;;2.43;;
21438;SDS011;10880;50.302;18.736;2024-03-29T00:04:40;3.60;;;2.50;;
21438;SDS011;10880;50.302;18.736;2024-03-29T00:07:06;3.07;;;2.30;;
21438;SDS011;10880;50.302;18.736;2024-03-29T00:09:32;2.57;;;2.37;;
21438;SDS011;10880;50.302;18.736;2024-03-29T00:11:59;2.83;;;2.40;;
21438;SDS011;10880;50.302;18.736;2024-03-29T00:14:26;2.50;;;2.30;;
21438;SDS011;10880;50.302;18.736;2024-03-29T00:16:52;2.53;;;2.33;;
21438;SDS011;10880;50.302;18.736;2024-03-29T00:19:19;2.60;;;2.40;;
21438;SDS011;10880;50.302;18.736;2024-03-29T00:21:45;2.57;;;2.37;;
21438;SDS011;10880;50.302;18.736;2024-03-29T00:24:12;3.20;;;2.53;;
21438;SDS011;10880;50.302;18.736;2024-03-29T00:26:38;2.73;;;2.20;;
21438;SDS011;10880;50.302;18.736;2024-03-29T00:29:05;4.00;;;3.00;;
21438;SDS011;10880;50.302;18.736;2024-03-29T00:31:31;4.03;;;3.27;;
21438;SDS011;10880;50.302;18.736;2024-03-29T00:33:57;4.60;;;3.20;;
21438;SDS011;10880;50.302;18.736;2024-03-29T00:36:24;3.47;;;2.90;;
21438;SDS011;10880;50.302;18.736;2024-03-29T00:38:50;4.97;;;3.30;;
21438;SDS011;10880;50.302;18.736;2024-03-29T00:41:17;4.07;;;3.00;;
21438;SDS011;10880;50.302;18.736;2024-03-29T00:43:43;3.50;;;2.70;;
21438;SDS011;10880;50.302;18.736;2024-03-29T00:46:09;4.07;;;3.30;;
21438;SDS011;10880;50.302;18.736;2024-03-29T00:48:36;3.60;;;2.60;;
21438;SDS011;10880;50.302;18.736;2024-03-29T00:51:03;2.87;;;2.53;;
21438;SDS011;10880;50.302;18.736;2024-03-29T00:53:29;2.63;;;2.43;;
21438;SDS011;10880;50.302;18.736;2024-03-29T00:55:56;3.77;;;2.60;;
21438;SDS011;10880;50.302;18.736;2024-03-29T00:58:22;2.97;;;2.60;;
21438;SDS011;10880;50.302;18.736;2024-03-29T01:00:49;3.93;;;2.83;;
21438;SDS011;10880;50.302;18.736;2024-03-29T01:03:15;5.50;;;3.37;;
21438;SDS011;10880;50.302;18.736;2024-03-29T01:05:41;5.20;;;3.40;;
21438;SDS011;10880;50.302;18.736;2024-03-29T01:08:08;3.10;;;2.80;;
21438;SDS011;10880;50.302;18.736;2024-03-29T01:10:35;3.63;;;2.87;;
21438;SDS011;10880;50.302;18.736;2024-03-29T01:13:02;3.17;;;2.60;;
21438;SDS011;10880;50.302;18.736;2024-03-29T01:15:29;2.53;;;2.10;;
21438;SDS011;10880;50.302;18.736;2024-03-29T01:17:55;3.07;;;2.20;;
21438;SDS011;10880;50.302;18.736;2024-03-29T01:20:22;3.60;;;2.57;;
21438;SDS011;10880;50.302;18.736;2024-03-29T01:22:48;3.67;;;2.40;;
21438;SDS011;10880;50.302;18.736;2024-03-29T01:25:14;4.03;;;2.77;;
21438;SDS011;10880;50.302;18.736;2024-03-29T01:27:43;3.90;;;2.70;;
21438;SDS011;10880;50.302;18.736;2024-03-29T01:30:09;4.33;;;2.80;;
21438;SDS011;10880;50.302;18.736;2024-03-29T01:32:36;3.93;;;2.57;;
21438;SDS011;10880;50.302;18.736;2024-03-29T01:35:02;3.47;;;2.57;;
21438;SDS011;10880;50.302;18.736;2024-03-29T01:37:29;2.40;;;2.20;;
21438;SDS011;10880;50.302;18.736;2024-03-29T01:39:56;3.17;;;2.33;;
21438;SDS011;10880;50.302;18.736;2024-03-29T01:42:22;2.83;;;2.43;;
21438;SDS011;10880;50.302;18.736;2024-03-29T01:44:49;3.27;;;2.57;;
21438;SDS011;10880;50.302;18.736;2024-03-29T01:47:16;3.73;;;2.83;;
21438;SDS011;10880;50.302;18.736;2024-03-29T01:49:44;3.07;;;2.60;;
21438;SDS011;10880;50.302;18.736;2024-03-29T01:52:12;3.07;;;2.70;;
21438;SDS011;10880;50.302;18.736;2024-03-29T01:54:42;2.53;;;2.33;;
21438;SDS011;10880;50.302;18.736;2024-03-29T01:57:10;3.07;;;2.47;;
21438;SDS011;10880;50.302;18.736;2024-03-29T01:59:40;2.47;;;2.27;;
21438;SDS011;10880;50.302;18.736;2024-03-29T02:02:08;2.90;;;2.60;;
21438;SDS011;10880;50.302;18.736;2024-03-29T02:04:35;2.73;;;2.20;;
21438;SDS011;10880;50.302;18.736;2024-03-29T02:07:03;2.63;;;2.10;;
21438;SDS011;10880;50.302;18.736;2024-03-29T02:09:29;3.67;;;2.60;;
21438;SDS011;10880;50.302;18.736;2024-03-29T02:11:56;2.73;;;2.47;;
21438;SDS011;10880;50.302;18.736;2024-03-29T02:14:22;2.40;;;2.20;;
21438;SDS011;10880;50.302;18.736;2024-03-29T02:16:49;2.20;;;2.00;;
21438;SDS011;10880;50.302;18.736;2024-03-29T02:19:15;2.43;;;2.03;;
21438;SDS011;10880;50.302;18.736;2024-03-29T02:21:42;2.33;;;2.00;;
21438;SDS011;10880;50.302;18.736;2024-03-29T02:24:11;2.30;;;2.10;;
21438;SDS011;10880;50.302;18.736;2024-03-29T02:26:41;2.30;;;2.10;;
21438;SDS011;10880;50.302;18.736;2024-03-29T02:29:08;2.20;;;2.00;;
21438;SDS011;10880;50.302;18.736;2024-03-29T02:31:35;1.90;;;1.80;;
21438;SDS011;10880;50.302;18.736;2024-03-29T02:34:01;2.07;;;1.87;;
21438;SDS011;10880;50.302;18.736;2024-03-29T02:36:29;2.20;;;2.00;;
21438;SDS011;10880;50.302;18.736;2024-03-29T02:38:55;2.00;;;1.90;;
21438;SDS011;10880;50.302;18.736;2024-03-29T02:41:22;1.77;;;1.67;;
21438;SDS011;10880;50.302;18.736;2024-03-29T02:43:49;2.33;;;1.90;;
21438;SDS011;10880;50.302;18.736;2024-03-29T02:46:15;1.70;;;1.60;;
21438;SDS011;10880;50.302;18.736;2024-03-29T02:48:41;2.00;;;1.90;;
21438;SDS011;10880;50.302;18.736;2024-03-29T02:51:08;2.47;;;1.77;;
21438;SDS011;10880;50.302;18.736;2024-03-29T02:53:35;1.67;;;1.57;;
21438;SDS011;10880;50.302;18.736;2024-03-29T02:56:01;2.50;;;2.30;;
21438;SDS011;10880;50.302;18.736;2024-03-29T02:58:28;3.17;;;2.40;;
21438;SDS011;10880;50.302;18.736;2024-03-29T03:00:54;2.53;;;2.33;;
21438;SDS011;10880;50.302;18.736;2024-03-29T03:03:23;2.60;;;2.37;;
21438;SDS011;10880;50.302;18.736;2024-03-29T03:05:52;3.17;;;2.30;;
21438;SDS011;10880;50.302;18.736;2024-03-29T03:08:21;2.90;;;2.47;;
21438;SDS011;10880;50.302;18.736;2024-03-29T03:11:06;2.50;;;2.30;;
21438;SDS011;10880;50.302;18.736;2024-03-29T03:13:36;3.17;;;2.10;;
21438;SDS011;10880;50.302;18.736;2024-03-29T03:16:02;2.17;;;2.00;;
21438;SDS011;10880;50.302;18.736;2024-03-29T03:18:29;2.17;;;2.00;;
21438;SDS011;10880;50.302;18.736;2024-03-29T03:20:56;2.13;;;2.00;;
21438;SDS011;10880;50.302;18.736;2024-03-29T03:23:25;2.77;;;2.30;;
21438;SDS011;10880;50.302;18.736;2024-03-29T03:25:55;2.50;;;2.30;;
21438;SDS011;10880;50.302;18.736;2024-03-29T03:28:22;3.00;;;2.53;;
21438;SDS011;10880;50.302;18.736;2024-03-29T03:30:49;3.93;;;2.60;;
21438;SDS011;10880;50.302;18.736;2024-03-29T03:33:17;5.07;;;3.00;;
21438;SDS011;10880;50.302;18.736;2024-03-29T03:35:43;4.50;;;2.80;;
21438;SDS011;10880;50.302;18.736;2024-03-29T03:38:13;5.23;;;2.90;;
21438;SDS011;10880;50.302;18.736;2024-03-29T03:40:39;3.40;;;2.60;;
21438;SDS011;10880;50.302;18.736;2024-03-29T03:43:06;2.70;;;2.40;;
21438;SDS011;10880;50.302;18.736;2024-03-29T03:45:33;2.60;;;2.37;;
21438;SDS011;10880;50.302;18.736;2024-03-29T03:48:08;2.13;;;2.03;;
21438;SDS011;10880;50.302;18.736;2024-03-29T03:50:37;1.80;;;1.70;;
21438;SDS011;10880;50.302;18.736;2024-03-29T03:53:04;2.00;;;1.80;;
21438;SDS011;10880;50.302;18.736;2024-03-29T03:55:30;2.10;;;1.90;;
21438;SDS011;10880;50.302;18.736;2024-03-29T03:57:57;2.27;;;2.07;;
21438;SDS011;10880;50.302;18.736;2024-03-29T04:00:23;2.23;;;2.03;;
21438;SDS011;10880;50.302;18.736;2024-03-29T04:02:51;2.00;;;1.90;;
21438;SDS011;10880;50.302;18.736;2024-03-29T04:05:18;2.63;;;2.10;;
21438;SDS011;10880;50.302;18.736;2024-03-29T04:07:46;1.97;;;1.80;;
21438;SDS011;10880;50.302;18.736;2024-03-29T04:10:12;2.20;;;2.10;;
21438;SDS011;10880;50.302;18.736;2024-03-29T04:12:39;2.30;;;2.10;;
21438;SDS011;10880;50.302;18.736;2024-03-29T04:15:06;2.30;;;2.10;;
21438;SDS011;10880;50.302;18.736;2024-03-29T04:17:32;2.27;;;2.10;;
21438;SDS011;10880;50.302;18.736;2024-03-29T04:20:00;3.00;;;2.40;;
21438;SDS011;10880;50.302;18.736;2024-03-29T04:22:30;2.50;;;2.30;;
21438;SDS011;10880;50.302;18.736;2024-03-29T04:24:57;2.73;;;2.30;;
21438;SDS011;10880;50.302;18.736;2024-03-29T04:27:23;2.73;;;2.20;;
21438;SDS011;10880;50.302;18.736;2024-03-29T04:29:51;2.50;;;2.30;;
21438;SDS011;10880;50.302;18.736;2024-03-29T04:32:18;3.07;;;2.30;;
21438;SDS011;10880;50.302;18.736;2024-03-29T04:34:49;3.13;;;2.57;;
21438;SDS011;10880;50.302;18.736;2024-03-29T04:37:16;2.60;;;2.40;;
21438;SDS011;10880;50.302;18.736;2024-03-29T04:39:43;2.90;;;2.30;;
21438;SDS011;10880;50.302;18.736;2024-03-29T04:42:10;3.57;;;2.80;;
21438;SDS011;10880;50.302;18.736;2024-03-29T04:44:37;2.80;;;2.40;;
21438;SDS011;10880;50.302;18.736;2024-03-29T04:47:04;3.67;;;2.77;;
21438;SDS011;10880;50.302;18.736;2024-03-29T04:49:31;3.40;;;2.60;;
21438;SDS011;10880;50.302;18.736;2024-03-29T04:52:02;2.90;;;2.53;;
21438;SDS011;10880;50.302;18.736;2024-03-29T04:54:30;4.07;;;2.80;;
21438;SDS011;10880;50.302;18.736;2024-03-29T04:56:57;3.93;;;3.07;;
21438;SDS011;10880;50.302;18.736;2024-03-29T04:59:24;5.23;;;2.70;;
21438;SDS011;10880;50.302;18.736;2024-03-29T05:01:50;3.80;;;2.87;;
21438;SDS011;10880;50.302;18.736;2024-03-29T05:04:28;5.63;;;3.23;;
21438;SDS011;10880;50.302;18.736;2024-03-29T05:06:54;5.50;;;3.30;;
21438;SDS011;10880;50.302;18.736;2024-03-29T05:09:22;6.73;;;3.77;;
21438;SDS011;10880;50.302;18.736;2024-03-29T05:11:50;4.90;;;2.83;;
21438;SDS011;10880;50.302;18.736;2024-03-29T05:14:19;6.87;;;3.37;;
21438;SDS011;10880;50.302;18.736;2024-03-29T05:16:47;4.10;;;2.90;;
21438;SDS011;10880;50.302;18.736;2024-03-29T05:19:14;4.40;;;2.70;;
21438;SDS011;10880;50.302;18.736;2024-03-29T05:21:41;3.67;;;2.90;;
21438;SDS011;10880;50.302;18.736;2024-03-29T05:24:08;4.23;;;3.10;;
21438;SDS011;10880;50.302;18.736;2024-03-29T05:26:35;4.17;;;2.60;;
21438;SDS011;10880;50.302;18.736;2024-03-29T05:29:01;2.70;;;2.50;;
21438;SDS011;10880;50.302;18.736;2024-03-29T05:31:29;4.30;;;2.77;;
21438;SDS011;10880;50.302;18.736;2024-03-29T05:33:56;5.93;;;3.17;;
21438;SDS011;10880;50.302;18.736;2024-03-29T05:36:22;5.20;;;3.00;;
21438;SDS011;10880;50.302;18.736;2024-03-29T05:38:49;3.40;;;3.00;;
21438;SDS011;10880;50.302;18.736;2024-03-29T05:41:16;5.73;;;3.47;;
21438;SDS011;10880;50.302;18.736;2024-03-29T05:43:42;6.70;;;3.30;;
21438;SDS011;10880;50.302;18.736;2024-03-29T05:46:08;5.50;;;3.30;;
21438;SDS011;10880;50.302;18.736;2024-03-29T05:48:35;4.63;;;3.07;;
21438;SDS011;10880;50.302;18.736;2024-03-29T05:51:01;5.13;;;3.00;;
21438;SDS011;10880;50.302;18.736;2024-03-29T05:53:28;5.40;;;2.67;;
21438;SDS011;10880;50.302;18.736;2024-03-29T05:55:54;2.90;;;2.60;;
21438;SDS011;10880;50.302;18.736;2024-03-29T05:58:21;5.87;;;3.00;;
21438;SDS011;10880;50.302;18.736;2024-03-29T06:00:48;4.83;;;2.63;;
21438;SDS011;10880;50.302;18.736;2024-03-29T06:03:15;5.80;;;2.83;;
21438;SDS011;10880;50.302;18.736;2024-03-29T06:05:42;4.33;;;2.40;;
21438;SDS011;10880;50.302;18.736;2024-03-29T06:08:09;3.40;;;2.40;;
21438;SDS011;10880;50.302;18.736;2024-03-29T06:10:35;6.10;;;3.27;;
21438;SDS011;10880;50.302;18.736;2024-03-29T06:13:01;4.03;;;2.70;;
21438;SDS011;10880;50.302;18.736;2024-03-29T06:15:36;2.77;;;2.40;;
21438;SDS011;10880;50.302;18.736;2024-03-29T06:18:21;2.80;;;2.30;;
21438;SDS011;10880;50.302;18.736;2024-03-29T06:20:47;5.80;;;2.87;;
21438;SDS011;10880;50.302;18.736;2024-03-29T06:23:15;3.57;;;2.47;;
21438;SDS011;10880;50.302;18.736;2024-03-29T06:25:41;3.60;;;2.00;;
21438;SDS011;10880;50.302;18.736;2024-03-29T06:28:08;2.63;;;2.17;;
21438;SDS011;10880;50.302;18.736;2024-03-29T06:30:34;5.37;;;2.50;;
21438;SDS011;10880;50.302;18.736;2024-03-29T06:33:01;2.23;;;2.03;;
21438;SDS011;10880;50.302;18.736;2024-03-29T06:35:29;3.03;;;2.60;;
21438;SDS011;10880;50.302;18.736;2024-03-29T06:37:56;3.00;;;2.30;;
21438;SDS011;10880;50.302;18.736;2024-03-29T06:40:23;2.67;;;2.13;;
21438;SDS011;10880;50.302;18.736;2024-03-29T06:42:50;3.23;;;2.20;;
21438;SDS011;10880;50.302;18.736;2024-03-29T06:45:17;3.33;;;2.33;;
21438;SDS011;10880;50.302;18.736;2024-03-29T06:47:43;2.37;;;2.13;;
21438;SDS011;10880;50.302;18.736;2024-03-29T06:50:10;3.13;;;2.13;;
21438;SDS011;10880;50.302;18.736;2024-03-29T06:52:36;2.93;;;2.00;;
21438;SDS011;10880;50.302;18.736;2024-03-29T06:55:03;4.00;;;2.40;;
21438;SDS011;10880;50.302;18.736;2024-03-29T06:57:29;3.30;;;2.37;;
21438;SDS011;10880;50.302;18.736;2024-03-29T06:59:57;2.40;;;2.00;;
21438;SDS011;10880;50.302;18.736;2024-03-29T07:02:24;3.40;;;2.10;;
21438;SDS011;10880;50.302;18.736;2024-03-29T07:04:51;2.87;;;2.30;;
21438;SDS011;10880;50.302;18.736;2024-03-29T07:07:18;3.47;;;2.30;;
21438;SDS011;10880;50.302;18.736;2024-03-29T07:09:44;4.17;;;2.40;;
21438;SDS011;10880;50.302;18.736;2024-03-29T07:12:10;4.13;;;2.60;;
21438;SDS011;10880;50.302;18.736;2024-03-29T07:14:37;4.00;;;2.40;;
21438;SDS011;10880;50.302;18.736;2024-03-29T07:17:03;3.57;;;2.30;;
21438;SDS011;10880;50.302;18.736;2024-03-29T07:19:30;3.73;;;2.40;;
21438;SDS011;10880;50.302;18.736;2024-03-29T07:21:56;3.90;;;2.60;;
21438;SDS011;10880;50.302;18.736;2024-03-29T07:24:23;6.23;;;3.03;;
21438;SDS011;10880;50.302;18.736;2024-03-29T07:26:49;5.30;;;3.00;;
21438;SDS011;10880;50.302;18.736;2024-03-29T07:29:15;4.57;;;2.70;;
21438;SDS011;10880;50.302;18.736;2024-03-29T07:31:42;5.83;;;3.03;;
21438;SDS011;10880;50.302;18.736;2024-03-29T07:34:09;4.13;;;2.70;;
21438;SDS011;10880;50.302;18.736;2024-03-29T07:36:36;3.57;;;2.40;;
21438;SDS011;10880;50.302;18.736;2024-03-29T07:39:03;4.70;;;2.90;;
21438;SDS011;10880;50.302;18.736;2024-03-29T07:41:30;3.83;;;2.37;;
21438;SDS011;10880;50.302;18.736;2024-03-29T07:43:57;5.00;;;2.60;;
21438;SDS011;10880;50.302;18.736;2024-03-29T07:46:32;5.43;;;2.57;;
21438;SDS011;10880;50.302;18.736;2024-03-29T07:49:00;3.60;;;2.00;;
21438;SDS011;10880;50.302;18.736;2024-03-29T07:51:27;4.60;;;2.60;;
21438;SDS011;10880;50.302;18.736;2024-03-29T07:53:53;2.97;;;2.20;;
21438;SDS011;10880;50.302;18.736;2024-03-29T07:56:20;2.37;;;2.00;;
21438;SDS011;10880;50.302;18.736;2024-03-29T07:58:52;5.00;;;3.10;;
21438;SDS011;10880;50.302;18.736;2024-03-29T08:01:22;3.57;;;2.80;;
21438;SDS011;10880;50.302;18.736;2024-03-29T08:03:50;3.27;;;2.70;;
21438;SDS011;10880;50.302;18.736;2024-03-29T08:06:19;5.23;;;2.80;;
21438;SDS011;10880;50.302;18.736;2024-03-29T08:08:50;3.00;;;2.20;;
21438;SDS011;10880;50.302;18.736;2024-03-29T08:11:16;2.17;;;1.73;;
21438;SDS011;10880;50.302;18.736;2024-03-29T08:13:43;3.53;;;2.10;;
21438;SDS011;10880;50.302;18.736;2024-03-29T08:16:09;3.57;;;2.10;;
21438;SDS011;10880;50.302;18.736;2024-03-29T08:18:36;2.17;;;1.70;;
21438;SDS011;10880;50.302;18.736;2024-03-29T08:21:03;2.40;;;1.90;;
21438;SDS011;10880;50.302;18.736;2024-03-29T08:23:36;2.43;;;1.80;;
21438;SDS011;10880;50.302;18.736;2024-03-29T08:26:04;4.07;;;1.80;;
21438;SDS011;10880;50.302;18.736;2024-03-29T08:28:33;3.43;;;2.27;;
21438;SDS011;10880;50.302;18.736;2024-03-29T08:31:01;3.10;;;2.00;;
21438;SDS011;10880;50.302;18.736;2024-03-29T08:33:30;5.23;;;3.43;;
21438;SDS011;10880;50.302;18.736;2024-03-29T08:35:58;3.47;;;2.43;;
21438;SDS011;10880;50.302;18.736;2024-03-29T08:38:27;5.73;;;3.97;;
21438;SDS011;10880;50.302;18.736;2024-03-29T08:40:54;4.83;;;3.20;;
21438;SDS011;10880;50.302;18.736;2024-03-29T08:43:20;4.97;;;3.40;;
21438;SDS011;10880;50.302;18.736;2024-03-29T08:45:47;3.37;;;2.60;;
21438;SDS011;10880;50.302;18.736;2024-03-29T08:48:13;2.47;;;1.90;;
21438;SDS011;10880;50.302;18.736;2024-03-29T08:50:40;2.30;;;1.93;;
21438;SDS011;10880;50.302;18.736;2024-03-29T08:53:07;2.40;;;1.80;;
21438;SDS011;10880;50.302;18.736;2024-03-29T08:55:34;3.47;;;2.40;;
21438;SDS011;10880;50.302;18.736;2024-03-29T08:58:03;4.83;;;2.40;;
21438;SDS011;10880;50.302;18.736;2024-03-29T09:00:38;2.80;;;2.17;;
21438;SDS011;10880;50.302;18.736;2024-03-29T09:03:21;2.97;;;2.00;;
21438;SDS011;10880;50.302;18.736;2024-03-29T09:05:49;2.90;;;2.00;;
21438;SDS011;10880;50.302;18.736;2024-03-29T09:08:16;3.10;;;2.10;;
21438;SDS011;10880;50.302;18.736;2024-03-29T09:10:44;2.17;;;1.97;;
21438;SDS011;10880;50.302;18.736;2024-03-29T09:13:11;1.70;;;1.60;;
21438;SDS011;10880;50.302;18.736;2024-03-29T09:15:37;3.23;;;1.90;;
21438;SDS011;10880;50.302;18.736;2024-03-29T09:18:05;3.40;;;2.53;;
21438;SDS011;10880;50.302;18.736;2024-03-29T09:20:56;4.60;;;2.93;;
21438;SDS011;10880;50.302;18.736;2024-03-29T09:23:25;4.80;;;2.50;;
21438;SDS011;10880;50.302;18.736;2024-03-29T09:25:57;2.93;;;2.03;;
21438;SDS011;10880;50.302;18.736;2024-03-29T09:28:24;2.27;;;1.80;;
21438;SDS011;10880;50.302;18.736;2024-03-29T09:30:56;1.80;;;1.63;;
21438;SDS011;10880;50.302;18.736;2024-03-29T09:33:24;4.03;;;2.43;;
21438;SDS011;10880;50.302;18.736;2024-03-29T09:35:51;3.77;;;2.60;;
21438;SDS011;10880;50.302;18.736;2024-03-29T09:38:20;4.27;;;2.73;;
21438;SDS011;10880;50.302;18.736;2024-03-29T09:40:48;4.10;;;2.40;;
21438;SDS011;10880;50.302;18.736;2024-03-29T09:43:21;2.93;;;2.27;;
21438;SDS011;10880;50.302;18.736;2024-03-29T09:45:49;2.20;;;2.00;;
21438;SDS011;10880;50.302;18.736;2024-03-29T09:48:15;2.47;;;1.90;;
21438;SDS011;10880;50.302;18.736;2024-03-29T09:50:43;2.53;;;1.90;;
21438;SDS011;10880;50.302;18.736;2024-03-29T09:53:10;2.73;;;2.17;;
21438;SDS011;10880;50.302;18.736;2024-03-29T09:55:37;2.87;;;2.30;;
21438;SDS011;10880;50.302;18.736;2024-03-29T09:58:05;1.97;;;1.77;;
21438;SDS011;10880;50.302;18.736;2024-03-29T10:00:31;2.33;;;1.90;;
21438;SDS011;10880;50.302;18.736;2024-03-29T10:02:58;1.93;;;1.67;;
21438;SDS011;10880;50.302;18.736;2024-03-29T10:05:26;1.97;;;1.50;;
21438;SDS011;10880;50.302;18.736;2024-03-29T10:07:54;1.60;;;1.50;;
21438;SDS011;10880;50.302;18.736;2024-03-29T10:10:22;2.40;;;1.63;;
21438;SDS011;10880;50.302;18.736;2024-03-29T10:12:49;4.10;;;2.40;;
21438;SDS011;10880;50.302;18.736;2024-03-29T10:15:16;2.10;;;1.90;;
21438;SDS011;10880;50.302;18.736;2024-03-29T10:17:47;1.60;;;1.50;;
21438;SDS011;10880;50.302;18.736;2024-03-29T10:20:17;2.00;;;1.70;;
21438;SDS011;10880;50.302;18.736;2024-03-29T10:22:45;1.70;;;1.60;;
21438;SDS011;10880;50.302;18.736;2024-03-29T10:25:15;1.63;;;1.53;;
21438;SDS011;10880;50.302;18.736;2024-03-29T10:27:42;1.63;;;1.53;;
21438;SDS011;10880;50.302;18.736;2024-03-29T10:30:08;2.20;;;1.80;;
21438;SDS011;10880;50.302;18.736;2024-03-29T10:32:39;2.50;;;1.90;;
21438;SDS011;10880;50.302;18.736;2024-03-29T10:35:06;2.93;;;2.20;;
21438;SDS011;10880;50.302;18.736;2024-03-29T10:37:34;2.00;;;1.80;;
21438;SDS011;10880;50.302;18.736;2024-03-29T10:40:08;2.43;;;1.80;;
21438;SDS011;10880;50.302;18.736;2024-03-29T10:42:38;2.43;;;2.00;;
21438;SDS011;10880;50.302;18.736;2024-03-29T10:45:08;2.40;;;2.10;;
21438;SDS011;10880;50.302;18.736;2024-03-29T10:47:35;2.37;;;2.07;;
21438;SDS011;10880;50.302;18.736;2024-03-29T10:50:02;3.80;;;2.60;;
21438;SDS011;10880;50.302;18.736;2024-03-29T10:52:31;2.97;;;2.17;;
21438;SDS011;10880;50.302;18.736;2024-03-29T10:54:58;1.60;;;1.50;;
21438;SDS011;10880;50.302;18.736;2024-03-29T10:57:27;1.90;;;1.60;;
21438;SDS011;10880;50.302;18.736;2024-03-29T11:05:21;1.63;;;1.53;;
21438;SDS011;10880;50.302;18.736;2024-03-29T11:07:52;1.60;;;1.50;;
21438;SDS011;10880;50.302;18.736;2024-03-29T11:10:22;2.00;;;1.30;;
21438;SDS011;10880;50.302;18.736;2024-03-29T11:13:07;1.40;;;1.30;;
21438;SDS011;10880;50.302;18.736;2024-03-29T11:15:48;1.50;;;1.40;;
21438;SDS011;10880;50.302;18.736;2024-03-29T11:18:16;1.37;;;1.27;;
21438;SDS011;10880;50.302;18.736;2024-03-29T11:20:45;1.20;;;1.20;;
21438;SDS011;10880;50.302;18.736;2024-03-29T11:23:17;1.80;;;1.60;;
21438;SDS011;10880;50.302;18.736;2024-03-29T11:25:49;1.60;;;1.50;;
21438;SDS011;10880;50.302;18.736;2024-03-29T11:28:23;1.40;;;1.30;;
21438;SDS011;10880;50.302;18.736;2024-03-29T11:30:53;1.43;;;1.33;;
21438;SDS011;10880;50.302;18.736;2024-03-29T11:33:35;1.30;;;1.20;;
21438;SDS011;10880;50.302;18.736;2024-03-29T11:36:18;1.57;;;1.47;;
21438;SDS011;10880;50.302;18.736;2024-03-29T11:38:56;1.50;;;1.40;;
21438;SDS011;10880;50.302;18.736;2024-03-29T11:41:24;1.63;;;1.20;;
21438;SDS011;10880;50.302;18.736;2024-03-29T11:43:55;1.30;;;1.20;;
21438;SDS011;10880;50.302;18.736;2024-03-29T11:46:23;2.23;;;1.50;;
21438;SDS011;10880;50.302;18.736;2024-03-29T11:48:51;1.23;;;1.23;;
21438;SDS011;10880;50.302;18.736;2024-03-29T11:51:19;1.20;;;1.20;;
21438;SDS011;10880;50.302;18.736;2024-03-29T11:53:48;1.50;;;1.27;;
21438;SDS011;10880;50.302;18.736;2024-03-29T11:56:17;1.50;;;1.40;;
21438;SDS011;10880;50.302;18.736;2024-03-29T11:58:44;1.40;;;1.27;;
21438;SDS011;10880;50.302;18.736;2024-03-29T12:01:12;1.40;;;1.30;;
21438;SDS011;10880;50.302;18.736;2024-03-29T12:03:40;1.50;;;1.40;;
21438;SDS011;10880;50.302;18.736;2024-03-29T12:06:08;3.13;;;1.43;;
21438;SDS011;10880;50.302;18.736;2024-03-29T12:08:36;1.50;;;1.40;;
21438;SDS011;10880;50.302;18.736;2024-03-29T12:11:04;1.60;;;1.43;;
21438;SDS011;10880;50.302;18.736;2024-03-29T12:13:33;1.93;;;1.57;;
21438;SDS011;10880;50.302;18.736;2024-03-29T12:16:00;1.70;;;1.50;;
21438;SDS011;10880;50.302;18.736;2024-03-29T12:18:27;2.00;;;1.60;;
21438;SDS011;10880;50.302;18.736;2024-03-29T12:20:54;2.47;;;2.20;;
21438;SDS011;10880;50.302;18.736;2024-03-29T12:23:21;2.30;;;1.97;;
21438;SDS011;10880;50.302;18.736;2024-03-29T12:25:48;2.33;;;1.83;;
21438;SDS011;10880;50.302;18.736;2024-03-29T12:28:17;1.60;;;1.47;;
21438;SDS011;10880;50.302;18.736;2024-03-29T12:30:44;1.40;;;1.30;;
21438;SDS011;10880;50.302;18.736;2024-03-29T12:33:12;1.40;;;1.30;;
21438;SDS011;10880;50.302;18.736;2024-03-29T12:35:44;1.10;;;1.10;;
21438;SDS011;10880;50.302;18.736;2024-03-29T12:38:18;1.40;;;1.30;;
21438;SDS011;10880;50.302;18.736;2024-03-29T12:40:46;1.30;;;1.20;;
21438;SDS011;10880;50.302;18.736;2024-03-29T12:43:20;1.40;;;1.30;;
21438;SDS011;10880;50.302;18.736;2024-03-29T12:45:48;1.47;;;1.37;;
21438;SDS011;10880;50.302;18.736;2024-03-29T12:48:16;1.30;;;1.20;;
21438;SDS011;10880;50.302;18.736;2024-03-29T12:50:45;1.40;;;1.30;;
21438;SDS011;10880;50.302;18.736;2024-03-29T12:53:14;1.73;;;1.50;;
21438;SDS011;10880;50.302;18.736;2024-03-29T12:55:44;1.20;;;1.20;;
21438;SDS011;10880;50.302;18.736;2024-03-29T12:58:13;1.57;;;1.43;;
21438;SDS011;10880;50.302;18.736;2024-03-29T13:00:46;1.70;;;1.40;;
21438;SDS011;10880;50.302;18.736;2024-03-29T13:03:13;2.17;;;1.50;;
21438;SDS011;10880;50.302;18.736;2024-03-29T13:05:40;1.50;;;1.40;;
21438;SDS011;10880;50.302;18.736;2024-03-29T13:08:08;1.40;;;1.30;;
21438;SDS011;10880;50.302;18.736;2024-03-29T13:10:36;1.40;;;1.30;;
21438;SDS011;10880;50.302;18.736;2024-03-29T13:13:05;1.43;;;1.33;;
21438;SDS011;10880;50.302;18.736;2024-03-29T13:15:32;1.43;;;1.30;;
21438;SDS011;10880;50.302;18.736;2024-03-29T13:18:00;1.33;;;1.23;;
21438;SDS011;10880;50.302;18.736;2024-03-29T13:20:27;1.40;;;1.30;;
21438;SDS011;10880;50.302;18.736;2024-03-29T13:22:54;1.43;;;1.33;;
21438;SDS011;10880;50.302;18.736;2024-03-29T13:25:21;1.80;;;1.50;;
21438;SDS011;10880;50.302;18.736;2024-03-29T13:27:49;1.77;;;1.40;;
21438;SDS011;10880;50.302;18.736;2024-03-29T13:30:21;1.40;;;1.30;;
21438;SDS011;10880;50.302;18.736;2024-03-29T13:32:51;1.40;;;1.30;;
21438;SDS011;10880;50.302;18.736;2024-03-29T13:35:18;1.30;;;1.20;;
21438;SDS011;10880;50.302;18.736;2024-03-29T13:37:48;1.17;;;1.10;;
21438;SDS011;10880;50.302;18.736;2024-03-29T13:40:16;2.10;;;1.30;;
21438;SDS011;10880;50.302;18.736;2024-03-29T13:42:46;1.30;;;1.20;;
21438;SDS011;10880;50.302;18.736;2024-03-29T13:45:15;1.77;;;1.40;;
21438;SDS011;10880;50.302;18.736;2024-03-29T13:47:43;1.30;;;1.20;;
21438;SDS011;10880;50.302;18.736;2024-03-29T13:50:10;1.63;;;1.30;;
21438;SDS011;10880;50.302;18.736;2024-03-29T13:52:37;1.67;;;1.30;;
21438;SDS011;10880;50.302;18.736;2024-03-29T13:55:04;1.60;;;1.50;;
21438;SDS011;10880;50.302;18.736;2024-03-29T13:57:31;1.40;;;1.30;;
21438;SDS011;10880;50.302;18.736;2024-03-29T13:59:58;2.67;;;1.50;;
21438;SDS011;10880;50.302;18.736;2024-03-29T14:02:25;1.47;;;1.37;;
21438;SDS011;10880;50.302;18.736;2024-03-29T14:04:54;3.43;;;1.30;;
21438;SDS011;10880;50.302;18.736;2024-03-29T14:07:21;1.30;;;1.20;;
21438;SDS011;10880;50.302;18.736;2024-03-29T14:09:51;1.53;;;1.43;;
21438;SDS011;10880;50.302;18.736;2024-03-29T14:12:18;1.67;;;1.30;;
21438;SDS011;10880;50.302;18.736;2024-03-29T14:14:47;1.37;;;1.27;;
21438;SDS011;10880;50.302;18.736;2024-03-29T14:17:17;1.10;;;1.10;;
21438;SDS011;10880;50.302;18.736;2024-03-29T14:19:44;1.40;;;1.30;;
21438;SDS011;10880;50.302;18.736;2024-03-29T14:22:10;2.27;;;1.43;;
21438;SDS011;10880;50.302;18.736;2024-03-29T14:24:42;1.43;;;1.20;;
21438;SDS011;10880;50.302;18.736;2024-03-29T14:27:09;1.73;;;1.30;;
21438;SDS011;10880;50.302;18.736;2024-03-29T14:29:36;1.30;;;1.20;;
21438;SDS011;10880;50.302;18.736;2024-03-29T14:32:02;1.40;;;1.30;;
21438;SDS011;10880;50.302;18.736;2024-03-29T14:34:29;2.10;;;1.27;;
21438;SDS011;10880;50.302;18.736;2024-03-29T14:36:58;1.70;;;1.30;;
21438;SDS011;10880;50.302;18.736;2024-03-29T14:39:24;1.37;;;1.27;;
21438;SDS011;10880;50.302;18.736;2024-03-29T14:41:51;1.70;;;1.30;;
21438;SDS011;10880;50.302;18.736;2024-03-29T14:44:18;1.83;;;1.40;;